sensor_id;sensor_type;location;lat;lon;timestamp;P1;durP1;ratioP1;P2;durP2;ratioP2
3101;SDS011;1561;42.666;23.392;2024-03-02T00:00:41;36.97;;;19.53;;
3101;SDS011;1561;42.666;23.392;2024-03-02T00:03:17;34.20;;;20.30;;
3101;SDS011;1561;42.666;23.392;2024-03-02T00:05:50;33.10;;;19.50;;
3101;SDS011;1561;42.666;23.392;2024-03-02T00:08:27;34.30;;;20.40;;
3101;SDS011;1561;42.666;23.392;2024-03-02T00:10:58;29.70;;;19.83;;
3101;SDS011;1561;42.666;23.392;2024-03-02T00:13:29;32.00;;;20.90;;
3101;SDS011;1561;42.666;23.392;2024-03-02T00:16:00;31.33;;;18.93;;
3101;SDS011;1561;42.666;23.392;2024-03-02T00:18:31;32.17;;;18.70;;
3101;SDS011;1561;42.666;23.392;2024-03-02T00:21:04;32.90;;;20.13;;
3101;SDS011;1561;42.666;23.392;2024-03-02T00:23:41;32.93;;;20.10;;
3101;SDS011;1561;42.666;23.392;2024-03-02T00:26:17;35.63;;;20.50;;
3101;SDS011;1561;42.666;23.392;2024-03-02T00:28:59;30.37;;;19.47;;
3101;SDS011;1561;42.666;23.392;2024-03-02T00:31:28;31.03;;;19.20;;
3101;SDS011;1561;42.666;23.392;2024-03-02T00:33:56;24.70;;;16.70;;
3101;SDS011;1561;42.666;23.392;2024-03-02T00:36:34;31.83;;;19.30;;
3101;SDS011;1561;42.666;23.392;2024-03-02T00:39:05;26.20;;;14.40;;
3101;SDS011;1561;42.666;23.392;2024-03-02T00:41:37;29.17;;;18.17;;
3101;SDS011;1561;42.666;23.392;2024-03-02T00:44:22;32.03;;;19.63;;
3101;SDS011;1561;42.666;23.392;2024-03-02T00:46:59;32.03;;;18.67;;
3101;SDS011;1561;42.666;23.392;2024-03-02T00:49:37;32.73;;;17.60;;
3101;SDS011;1561;42.666;23.392;2024-03-02T00:52:23;31.30;;;19.10;;
3101;SDS011;1561;42.666;23.392;2024-03-02T00:54:52;32.80;;;19.20;;
3101;SDS011;1561;42.666;23.392;2024-03-02T00:57:24;35.43;;;20.43;;
3101;SDS011;1561;42.666;23.392;2024-03-02T00:59:55;29.80;;;18.40;;
3101;SDS011;1561;42.666;23.392;2024-03-02T01:02:28;32.00;;;19.97;;
3101;SDS011;1561;42.666;23.392;2024-03-02T01:04:57;31.20;;;19.70;;
3101;SDS011;1561;42.666;23.392;2024-03-02T01:07:29;34.53;;;20.40;;
3101;SDS011;1561;42.666;23.392;2024-03-02T01:09:56;32.33;;;19.37;;
3101;SDS011;1561;42.666;23.392;2024-03-02T01:12:25;32.60;;;20.43;;
3101;SDS011;1561;42.666;23.392;2024-03-02T01:14:54;27.60;;;16.90;;
3101;SDS011;1561;42.666;23.392;2024-03-02T01:17:22;33.60;;;20.40;;
3101;SDS011;1561;42.666;23.392;2024-03-02T01:19:50;34.60;;;20.27;;
3101;SDS011;1561;42.666;23.392;2024-03-02T01:22:21;26.70;;;19.10;;
3101;SDS011;1561;42.666;23.392;2024-03-02T01:24:53;30.20;;;18.77;;
3101;SDS011;1561;42.666;23.392;2024-03-02T01:27:22;24.60;;;16.00;;
3101;SDS011;1561;42.666;23.392;2024-03-02T01:29:53;27.87;;;17.80;;
3101;SDS011;1561;42.666;23.392;2024-03-02T01:32:22;28.07;;;18.00;;
3101;SDS011;1561;42.666;23.392;2024-03-02T01:34:52;31.00;;;18.07;;
3101;SDS011;1561;42.666;23.392;2024-03-02T01:37:28;30.53;;;19.33;;
3101;SDS011;1561;42.666;23.392;2024-03-02T01:40:00;32.40;;;20.13;;
3101;SDS011;1561;42.666;23.392;2024-03-02T01:42:34;35.33;;;18.23;;
3101;SDS011;1561;42.666;23.392;2024-03-02T01:45:07;31.77;;;18.47;;
3101;SDS011;1561;42.666;23.392;2024-03-02T01:47:36;38.27;;;21.10;;
3101;SDS011;1561;42.666;23.392;2024-03-02T01:50:05;30.30;;;18.60;;
3101;SDS011;1561;42.666;23.392;2024-03-02T01:52:35;35.70;;;20.20;;
3101;SDS011;1561;42.666;23.392;2024-03-02T01:55:06;31.43;;;18.83;;
3101;SDS011;1561;42.666;23.392;2024-03-02T01:57:40;35.20;;;21.30;;
3101;SDS011;1561;42.666;23.392;2024-03-02T02:00:10;30.37;;;18.77;;
3101;SDS011;1561;42.666;23.392;2024-03-02T02:02:38;32.40;;;20.97;;
3101;SDS011;1561;42.666;23.392;2024-03-02T02:05:07;38.10;;;20.90;;
3101;SDS011;1561;42.666;23.392;2024-03-02T02:07:37;37.30;;;22.47;;
3101;SDS011;1561;42.666;23.392;2024-03-02T02:10:15;33.27;;;20.67;;
3101;SDS011;1561;42.666;23.392;2024-03-02T02:12:44;39.47;;;21.77;;
3101;SDS011;1561;42.666;23.392;2024-03-02T02:15:23;36.67;;;22.97;;
3101;SDS011;1561;42.666;23.392;2024-03-02T02:17:52;39.70;;;22.23;;
3101;SDS011;1561;42.666;23.392;2024-03-02T02:20:25;36.73;;;20.50;;
3101;SDS011;1561;42.666;23.392;2024-03-02T02:23:02;37.47;;;20.93;;
3101;SDS011;1561;42.666;23.392;2024-03-02T02:25:30;36.00;;;20.80;;
3101;SDS011;1561;42.666;23.392;2024-03-02T02:27:59;33.20;;;21.47;;
3101;SDS011;1561;42.666;23.392;2024-03-02T02:30:26;38.47;;;22.00;;
3101;SDS011;1561;42.666;23.392;2024-03-02T02:33:00;35.67;;;20.80;;
3101;SDS011;1561;42.666;23.392;2024-03-02T02:35:38;43.37;;;22.40;;
3101;SDS011;1561;42.666;23.392;2024-03-02T02:38:09;34.63;;;20.57;;
3101;SDS011;1561;42.666;23.392;2024-03-02T02:40:36;34.10;;;19.37;;
3101;SDS011;1561;42.666;23.392;2024-03-02T02:43:05;35.07;;;19.80;;
3101;SDS011;1561;42.666;23.392;2024-03-02T02:45:34;34.10;;;19.97;;
3101;SDS011;1561;42.666;23.392;2024-03-02T02:48:07;34.50;;;21.37;;
3101;SDS011;1561;42.666;23.392;2024-03-02T02:50:37;32.93;;;20.27;;
3101;SDS011;1561;42.666;23.392;2024-03-02T02:55:51;37.23;;;22.60;;
3101;SDS011;1561;42.666;23.392;2024-03-02T02:58:19;40.43;;;22.53;;
3101;SDS011;1561;42.666;23.392;2024-03-02T03:00:48;36.43;;;21.23;;
3101;SDS011;1561;42.666;23.392;2024-03-02T03:03:15;39.63;;;21.27;;
3101;SDS011;1561;42.666;23.392;2024-03-02T03:05:43;43.17;;;24.77;;
3101;SDS011;1561;42.666;23.392;2024-03-02T03:08:13;45.97;;;24.80;;
3101;SDS011;1561;42.666;23.392;2024-03-02T03:10:47;44.77;;;25.37;;
3101;SDS011;1561;42.666;23.392;2024-03-02T03:13:15;42.10;;;24.10;;
3101;SDS011;1561;42.666;23.392;2024-03-02T03:15:43;41.87;;;22.50;;
3101;SDS011;1561;42.666;23.392;2024-03-02T03:18:12;34.83;;;21.93;;
3101;SDS011;1561;42.666;23.392;2024-03-02T03:20:39;35.37;;;22.10;;
3101;SDS011;1561;42.666;23.392;2024-03-02T03:23:07;40.53;;;23.17;;
3101;SDS011;1561;42.666;23.392;2024-03-02T03:25:40;38.57;;;21.83;;
3101;SDS011;1561;42.666;23.392;2024-03-02T03:28:10;32.80;;;21.27;;
3101;SDS011;1561;42.666;23.392;2024-03-02T03:30:46;38.93;;;21.50;;
3101;SDS011;1561;42.666;23.392;2024-03-02T03:33:20;36.10;;;22.00;;
3101;SDS011;1561;42.666;23.392;2024-03-02T03:35:52;41.90;;;25.60;;
3101;SDS011;1561;42.666;23.392;2024-03-02T03:38:23;45.57;;;27.53;;
3101;SDS011;1561;42.666;23.392;2024-03-02T03:40:50;39.50;;;22.70;;
3101;SDS011;1561;42.666;23.392;2024-03-02T03:43:23;38.27;;;22.30;;
3101;SDS011;1561;42.666;23.392;2024-03-02T03:45:51;36.00;;;22.40;;
3101;SDS011;1561;42.666;23.392;2024-03-02T03:48:21;42.50;;;25.40;;
3101;SDS011;1561;42.666;23.392;2024-03-02T03:50:50;35.50;;;21.33;;
3101;SDS011;1561;42.666;23.392;2024-03-02T03:53:18;39.00;;;25.13;;
3101;SDS011;1561;42.666;23.392;2024-03-02T03:55:52;36.37;;;22.60;;
3101;SDS011;1561;42.666;23.392;2024-03-02T03:58:26;39.20;;;23.77;;
3101;SDS011;1561;42.666;23.392;2024-03-02T04:00:55;36.37;;;21.40;;
3101;SDS011;1561;42.666;23.392;2024-03-02T04:03:30;36.63;;;22.27;;
3101;SDS011;1561;42.666;23.392;2024-03-02T04:06:03;35.50;;;21.73;;
3101;SDS011;1561;42.666;23.392;2024-03-02T04:08:38;43.63;;;24.00;;
3101;SDS011;1561;42.666;23.392;2024-03-02T04:11:06;39.43;;;24.00;;
3101;SDS011;1561;42.666;23.392;2024-03-02T04:16:26;39.23;;;22.97;;
3101;SDS011;1561;42.666;23.392;2024-03-02T04:18:58;36.47;;;21.50;;
3101;SDS011;1561;42.666;23.392;2024-03-02T04:21:26;34.90;;;22.60;;
3101;SDS011;1561;42.666;23.392;2024-03-02T04:23:55;42.00;;;23.80;;
3101;SDS011;1561;42.666;23.392;2024-03-02T04:26:32;35.87;;;22.63;;
3101;SDS011;1561;42.666;23.392;2024-03-02T04:29:04;33.80;;;21.13;;
3101;SDS011;1561;42.666;23.392;2024-03-02T04:31:40;37.67;;;22.43;;
3101;SDS011;1561;42.666;23.392;2024-03-02T04:34:11;35.47;;;23.00;;
3101;SDS011;1561;42.666;23.392;2024-03-02T04:36:42;38.17;;;22.07;;
3101;SDS011;1561;42.666;23.392;2024-03-02T04:39:12;37.40;;;22.23;;
3101;SDS011;1561;42.666;23.392;2024-03-02T04:41:43;36.67;;;20.93;;
3101;SDS011;1561;42.666;23.392;2024-03-02T04:44:13;43.30;;;23.53;;
3101;SDS011;1561;42.666;23.392;2024-03-02T04:46:42;40.90;;;23.47;;
3101;SDS011;1561;42.666;23.392;2024-03-02T04:49:13;43.83;;;22.50;;
3101;SDS011;1561;42.666;23.392;2024-03-02T04:51:43;40.43;;;23.03;;
3101;SDS011;1561;42.666;23.392;2024-03-02T04:54:12;37.77;;;22.67;;
3101;SDS011;1561;42.666;23.392;2024-03-02T04:56:45;39.20;;;22.60;;
3101;SDS011;1561;42.666;23.392;2024-03-02T04:59:23;42.67;;;23.40;;
3101;SDS011;1561;42.666;23.392;2024-03-02T05:01:52;40.33;;;23.60;;
3101;SDS011;1561;42.666;23.392;2024-03-02T05:04:19;39.93;;;22.47;;
3101;SDS011;1561;42.666;23.392;2024-03-02T05:06:47;40.53;;;23.60;;
3101;SDS011;1561;42.666;23.392;2024-03-02T05:09:20;42.07;;;23.70;;
3101;SDS011;1561;42.666;23.392;2024-03-02T05:11:56;45.43;;;23.77;;
3101;SDS011;1561;42.666;23.392;2024-03-02T05:14:39;41.10;;;23.67;;
3101;SDS011;1561;42.666;23.392;2024-03-02T05:17:14;40.43;;;24.83;;
3101;SDS011;1561;42.666;23.392;2024-03-02T05:19:42;43.20;;;24.77;;
3101;SDS011;1561;42.666;23.392;2024-03-02T05:22:13;46.50;;;24.40;;
3101;SDS011;1561;42.666;23.392;2024-03-02T05:24:44;45.33;;;23.50;;
3101;SDS011;1561;42.666;23.392;2024-03-02T05:27:11;43.07;;;24.90;;
3101;SDS011;1561;42.666;23.392;2024-03-02T05:29:44;48.23;;;24.17;;
3101;SDS011;1561;42.666;23.392;2024-03-02T05:32:11;41.40;;;23.87;;
3101;SDS011;1561;42.666;23.392;2024-03-02T05:34:37;44.13;;;24.47;;
3101;SDS011;1561;42.666;23.392;2024-03-02T05:37:05;43.47;;;24.73;;
3101;SDS011;1561;42.666;23.392;2024-03-02T05:39:40;41.33;;;24.73;;
3101;SDS011;1561;42.666;23.392;2024-03-02T05:42:10;45.03;;;24.13;;
3101;SDS011;1561;42.666;23.392;2024-03-02T05:44:37;43.13;;;24.60;;
3101;SDS011;1561;42.666;23.392;2024-03-02T05:47:07;44.80;;;26.53;;
3101;SDS011;1561;42.666;23.392;2024-03-02T05:49:37;54.63;;;27.03;;
3101;SDS011;1561;42.666;23.392;2024-03-02T05:52:06;45.57;;;25.57;;
3101;SDS011;1561;42.666;23.392;2024-03-02T05:54:34;46.67;;;26.90;;
3101;SDS011;1561;42.666;23.392;2024-03-02T05:57:02;47.47;;;26.60;;
3101;SDS011;1561;42.666;23.392;2024-03-02T05:59:47;53.10;;;27.80;;
3101;SDS011;1561;42.666;23.392;2024-03-02T06:02:18;50.70;;;26.17;;
3101;SDS011;1561;42.666;23.392;2024-03-02T06:04:48;49.70;;;26.57;;
3101;SDS011;1561;42.666;23.392;2024-03-02T06:07:15;48.73;;;27.30;;
3101;SDS011;1561;42.666;23.392;2024-03-02T06:09:41;53.20;;;28.73;;
3101;SDS011;1561;42.666;23.392;2024-03-02T06:12:09;46.20;;;26.43;;
3101;SDS011;1561;42.666;23.392;2024-03-02T06:14:36;48.90;;;27.60;;
3101;SDS011;1561;42.666;23.392;2024-03-02T06:17:05;50.33;;;25.50;;
3101;SDS011;1561;42.666;23.392;2024-03-02T06:19:33;50.10;;;27.00;;
3101;SDS011;1561;42.666;23.392;2024-03-02T06:22:01;50.27;;;25.07;;
3101;SDS011;1561;42.666;23.392;2024-03-02T06:24:30;48.17;;;27.67;;
3101;SDS011;1561;42.666;23.392;2024-03-02T06:27:04;49.73;;;26.60;;
3101;SDS011;1561;42.666;23.392;2024-03-02T06:29:34;53.00;;;25.27;;
3101;SDS011;1561;42.666;23.392;2024-03-02T06:32:04;55.63;;;27.77;;
3101;SDS011;1561;42.666;23.392;2024-03-02T06:34:32;62.80;;;27.20;;
3101;SDS011;1561;42.666;23.392;2024-03-02T06:37:04;53.03;;;26.77;;
3101;SDS011;1561;42.666;23.392;2024-03-02T06:39:31;59.67;;;29.37;;
3101;SDS011;1561;42.666;23.392;2024-03-02T06:42:04;58.67;;;30.37;;
3101;SDS011;1561;42.666;23.392;2024-03-02T06:44:34;70.60;;;30.93;;
3101;SDS011;1561;42.666;23.392;2024-03-02T06:47:01;62.13;;;30.80;;
3101;SDS011;1561;42.666;23.392;2024-03-02T06:49:28;75.97;;;35.80;;
3101;SDS011;1561;42.666;23.392;2024-03-02T06:52:04;67.53;;;33.67;;
3101;SDS011;1561;42.666;23.392;2024-03-02T06:54:33;64.20;;;32.03;;
3101;SDS011;1561;42.666;23.392;2024-03-02T06:57:01;56.50;;;30.10;;
3101;SDS011;1561;42.666;23.392;2024-03-02T06:59:30;59.63;;;29.30;;
3101;SDS011;1561;42.666;23.392;2024-03-02T07:01:59;54.40;;;30.17;;
3101;SDS011;1561;42.666;23.392;2024-03-02T07:04:27;58.30;;;30.17;;
3101;SDS011;1561;42.666;23.392;2024-03-02T07:06:54;50.33;;;26.20;;
3101;SDS011;1561;42.666;23.392;2024-03-02T07:09:25;47.83;;;25.43;;
3101;SDS011;1561;42.666;23.392;2024-03-02T07:11:55;48.23;;;26.00;;
3101;SDS011;1561;42.666;23.392;2024-03-02T07:14:23;47.77;;;26.63;;
3101;SDS011;1561;42.666;23.392;2024-03-02T07:17:20;51.97;;;25.27;;
3101;SDS011;1561;42.666;23.392;2024-03-02T07:19:47;44.83;;;24.73;;
3101;SDS011;1561;42.666;23.392;2024-03-02T07:22:14;47.73;;;26.10;;
3101;SDS011;1561;42.666;23.392;2024-03-02T07:24:43;50.87;;;26.07;;
3101;SDS011;1561;42.666;23.392;2024-03-02T07:27:12;54.40;;;28.37;;
3101;SDS011;1561;42.666;23.392;2024-03-02T07:29:41;49.13;;;25.60;;
3101;SDS011;1561;42.666;23.392;2024-03-02T07:32:09;45.50;;;24.80;;
3101;SDS011;1561;42.666;23.392;2024-03-02T07:34:38;42.67;;;23.57;;
3101;SDS011;1561;42.666;23.392;2024-03-02T07:37:06;45.73;;;25.90;;
3101;SDS011;1561;42.666;23.392;2024-03-02T07:39:37;45.43;;;24.20;;
3101;SDS011;1561;42.666;23.392;2024-03-02T07:42:07;46.57;;;24.90;;
3101;SDS011;1561;42.666;23.392;2024-03-02T07:44:37;48.73;;;23.73;;
3101;SDS011;1561;42.666;23.392;2024-03-02T07:47:06;43.67;;;25.20;;
3101;SDS011;1561;42.666;23.392;2024-03-02T07:49:37;39.90;;;21.27;;
3101;SDS011;1561;42.666;23.392;2024-03-02T07:52:10;47.80;;;22.70;;
3101;SDS011;1561;42.666;23.392;2024-03-02T07:54:38;40.40;;;23.37;;
3101;SDS011;1561;42.666;23.392;2024-03-02T07:57:12;43.30;;;25.23;;
3101;SDS011;1561;42.666;23.392;2024-03-02T07:59:50;43.10;;;24.07;;
3101;SDS011;1561;42.666;23.392;2024-03-02T08:02:18;41.63;;;23.23;;
3101;SDS011;1561;42.666;23.392;2024-03-02T08:04:46;41.50;;;22.70;;
3101;SDS011;1561;42.666;23.392;2024-03-02T08:07:15;42.33;;;23.83;;
3101;SDS011;1561;42.666;23.392;2024-03-02T08:09:43;44.70;;;23.60;;
3101;SDS011;1561;42.666;23.392;2024-03-02T08:12:14;38.03;;;20.53;;
3101;SDS011;1561;42.666;23.392;2024-03-02T08:14:41;44.77;;;22.90;;
3101;SDS011;1561;42.666;23.392;2024-03-02T08:17:13;40.70;;;22.80;;
3101;SDS011;1561;42.666;23.392;2024-03-02T08:19:41;40.17;;;21.43;;
3101;SDS011;1561;42.666;23.392;2024-03-02T08:22:10;45.00;;;22.53;;
3101;SDS011;1561;42.666;23.392;2024-03-02T08:24:40;45.37;;;22.60;;
3101;SDS011;1561;42.666;23.392;2024-03-02T08:27:11;43.83;;;23.10;;
3101;SDS011;1561;42.666;23.392;2024-03-02T08:29:41;38.30;;;20.67;;
3101;SDS011;1561;42.666;23.392;2024-03-02T08:32:09;45.87;;;24.50;;
3101;SDS011;1561;42.666;23.392;2024-03-02T08:34:37;42.97;;;24.47;;
3101;SDS011;1561;42.666;23.392;2024-03-02T08:37:06;49.63;;;25.30;;
3101;SDS011;1561;42.666;23.392;2024-03-02T08:39:36;48.17;;;27.30;;
3101;SDS011;1561;42.666;23.392;2024-03-02T08:42:05;47.47;;;26.70;;
3101;SDS011;1561;42.666;23.392;2024-03-02T08:44:40;45.10;;;24.77;;
3101;SDS011;1561;42.666;23.392;2024-03-02T08:47:08;48.37;;;25.83;;
3101;SDS011;1561;42.666;23.392;2024-03-02T08:49:35;49.00;;;25.80;;
3101;SDS011;1561;42.666;23.392;2024-03-02T08:52:02;44.17;;;25.07;;
3101;SDS011;1561;42.666;23.392;2024-03-02T08:54:29;51.23;;;25.37;;
3101;SDS011;1561;42.666;23.392;2024-03-02T08:57:00;48.20;;;23.80;;
3101;SDS011;1561;42.666;23.392;2024-03-02T08:59:27;43.60;;;23.60;;
3101;SDS011;1561;42.666;23.392;2024-03-02T09:01:59;40.30;;;23.93;;
3101;SDS011;1561;42.666;23.392;2024-03-02T09:04:27;36.70;;;20.90;;
3101;SDS011;1561;42.666;23.392;2024-03-02T09:06:55;39.27;;;23.00;;
3101;SDS011;1561;42.666;23.392;2024-03-02T09:09:28;40.93;;;24.67;;
3101;SDS011;1561;42.666;23.392;2024-03-02T09:12:00;37.57;;;24.20;;
3101;SDS011;1561;42.666;23.392;2024-03-02T09:14:28;36.20;;;20.83;;
3101;SDS011;1561;42.666;23.392;2024-03-02T09:17:02;37.50;;;20.40;;
3101;SDS011;1561;42.666;23.392;2024-03-02T09:19:31;31.87;;;19.27;;
3101;SDS011;1561;42.666;23.392;2024-03-02T09:21:59;28.70;;;19.67;;
3101;SDS011;1561;42.666;23.392;2024-03-02T09:24:29;32.83;;;22.03;;
3101;SDS011;1561;42.666;23.392;2024-03-02T09:26:59;42.00;;;23.80;;
3101;SDS011;1561;42.666;23.392;2024-03-02T09:29:26;40.47;;;23.50;;
3101;SDS011;1561;42.666;23.392;2024-03-02T09:31:58;39.03;;;22.00;;
3101;SDS011;1561;42.666;23.392;2024-03-02T09:34:35;36.70;;;19.73;;
3101;SDS011;1561;42.666;23.392;2024-03-02T09:37:03;39.77;;;21.13;;
3101;SDS011;1561;42.666;23.392;2024-03-02T09:39:34;36.80;;;20.73;;
3101;SDS011;1561;42.666;23.392;2024-03-02T09:42:04;37.63;;;22.20;;
3101;SDS011;1561;42.666;23.392;2024-03-02T09:44:34;43.23;;;24.07;;
3101;SDS011;1561;42.666;23.392;2024-03-02T09:47:02;37.17;;;21.27;;
3101;SDS011;1561;42.666;23.392;2024-03-02T09:49:29;38.53;;;21.40;;
3101;SDS011;1561;42.666;23.392;2024-03-02T09:51:57;35.93;;;21.53;;
3101;SDS011;1561;42.666;23.392;2024-03-02T09:54:25;34.37;;;21.63;;
3101;SDS011;1561;42.666;23.392;2024-03-02T09:56:53;37.90;;;20.93;;
3101;SDS011;1561;42.666;23.392;2024-03-02T09:59:21;34.10;;;19.17;;
3101;SDS011;1561;42.666;23.392;2024-03-02T10:01:55;34.07;;;20.57;;
3101;SDS011;1561;42.666;23.392;2024-03-02T10:04:25;31.23;;;19.60;;
3101;SDS011;1561;42.666;23.392;2024-03-02T10:07:02;34.87;;;20.80;;
3101;SDS011;1561;42.666;23.392;2024-03-02T10:09:40;32.43;;;19.73;;
3101;SDS011;1561;42.666;23.392;2024-03-02T10:12:10;39.30;;;22.60;;
3101;SDS011;1561;42.666;23.392;2024-03-02T10:14:46;35.67;;;19.97;;
3101;SDS011;1561;42.666;23.392;2024-03-02T10:17:18;29.73;;;19.37;;
3101;SDS011;1561;42.666;23.392;2024-03-02T10:19:46;28.93;;;17.90;;
3101;SDS011;1561;42.666;23.392;2024-03-02T10:22:15;31.97;;;18.60;;
3101;SDS011;1561;42.666;23.392;2024-03-02T10:24:45;29.50;;;18.50;;
3101;SDS011;1561;42.666;23.392;2024-03-02T10:27:15;28.67;;;18.10;;
3101;SDS011;1561;42.666;23.392;2024-03-02T10:29:45;24.87;;;15.27;;
3101;SDS011;1561;42.666;23.392;2024-03-02T10:32:16;25.97;;;16.20;;
3101;SDS011;1561;42.666;23.392;2024-03-02T10:34:49;25.03;;;15.60;;
3101;SDS011;1561;42.666;23.392;2024-03-02T10:37:31;25.20;;;15.30;;
3101;SDS011;1561;42.666;23.392;2024-03-02T10:40:04;25.27;;;15.83;;
3101;SDS011;1561;42.666;23.392;2024-03-02T10:42:33;26.17;;;15.10;;
3101;SDS011;1561;42.666;23.392;2024-03-02T10:45:04;20.77;;;14.70;;
3101;SDS011;1561;42.666;23.392;2024-03-02T10:47:38;23.50;;;14.77;;
3101;SDS011;1561;42.666;23.392;2024-03-02T10:50:10;19.20;;;13.50;;
3101;SDS011;1561;42.666;23.392;2024-03-02T10:55:21;19.83;;;14.20;;
3101;SDS011;1561;42.666;23.392;2024-03-02T10:57:53;23.80;;;14.70;;
3101;SDS011;1561;42.666;23.392;2024-03-02T11:00:32;21.53;;;14.10;;
3101;SDS011;1561;42.666;23.392;2024-03-02T11:03:11;21.03;;;13.63;;
3101;SDS011;1561;42.666;23.392;2024-03-02T11:05:44;27.43;;;16.80;;
3101;SDS011;1561;42.666;23.392;2024-03-02T11:08:18;27.30;;;15.70;;
3101;SDS011;1561;42.666;23.392;2024-03-02T11:10:52;21.07;;;14.20;;
3101;SDS011;1561;42.666;23.392;2024-03-02T11:13:27;25.17;;;15.53;;
3101;SDS011;1561;42.666;23.392;2024-03-02T11:15:59;26.50;;;15.53;;
3101;SDS011;1561;42.666;23.392;2024-03-02T11:18:32;25.40;;;15.77;;
3101;SDS011;1561;42.666;23.392;2024-03-02T11:21:02;21.67;;;14.73;;
3101;SDS011;1561;42.666;23.392;2024-03-02T11:23:36;22.13;;;13.30;;
3101;SDS011;1561;42.666;23.392;2024-03-02T11:26:16;21.30;;;14.60;;
3101;SDS011;1561;42.666;23.392;2024-03-02T11:28:53;21.90;;;15.33;;
3101;SDS011;1561;42.666;23.392;2024-03-02T11:34:29;17.47;;;13.00;;
3101;SDS011;1561;42.666;23.392;2024-03-02T11:37:17;19.47;;;13.40;;
3101;SDS011;1561;42.666;23.392;2024-03-02T11:39:53;19.53;;;14.57;;
3101;SDS011;1561;42.666;23.392;2024-03-02T11:42:26;22.40;;;13.73;;
3101;SDS011;1561;42.666;23.392;2024-03-02T11:44:56;19.43;;;12.87;;
3101;SDS011;1561;42.666;23.392;2024-03-02T11:47:31;19.73;;;13.10;;
3101;SDS011;1561;42.666;23.392;2024-03-02T11:50:00;19.17;;;11.80;;
3101;SDS011;1561;42.666;23.392;2024-03-02T11:52:42;17.37;;;13.17;;
3101;SDS011;1561;42.666;23.392;2024-03-02T11:55:15;21.20;;;12.10;;
3101;SDS011;1561;42.666;23.392;2024-03-02T11:57:51;18.40;;;12.43;;
3101;SDS011;1561;42.666;23.392;2024-03-02T12:00:30;21.00;;;14.07;;
3101;SDS011;1561;42.666;23.392;2024-03-02T12:03:04;16.80;;;11.97;;
3101;SDS011;1561;42.666;23.392;2024-03-02T12:05:34;17.73;;;12.63;;
3101;SDS011;1561;42.666;23.392;2024-03-02T12:08:02;20.80;;;13.57;;
3101;SDS011;1561;42.666;23.392;2024-03-02T12:10:33;17.70;;;12.30;;
3101;SDS011;1561;42.666;23.392;2024-03-02T12:13:04;19.53;;;13.07;;
3101;SDS011;1561;42.666;23.392;2024-03-02T12:15:34;18.43;;;12.20;;
3101;SDS011;1561;42.666;23.392;2024-03-02T12:18:16;19.57;;;13.40;;
3101;SDS011;1561;42.666;23.392;2024-03-02T12:20:44;17.83;;;13.00;;
3101;SDS011;1561;42.666;23.392;2024-03-02T12:23:20;16.33;;;11.20;;
3101;SDS011;1561;42.666;23.392;2024-03-02T12:25:50;16.97;;;12.00;;
3101;SDS011;1561;42.666;23.392;2024-03-02T12:28:24;16.37;;;11.23;;
3101;SDS011;1561;42.666;23.392;2024-03-02T12:30:52;21.70;;;12.53;;
3101;SDS011;1561;42.666;23.392;2024-03-02T12:33:22;15.83;;;11.70;;
3101;SDS011;1561;42.666;23.392;2024-03-02T12:35:53;17.80;;;12.60;;
3101;SDS011;1561;42.666;23.392;2024-03-02T12:38:21;15.77;;;12.13;;
3101;SDS011;1561;42.666;23.392;2024-03-02T12:41:06;14.30;;;10.63;;
3101;SDS011;1561;42.666;23.392;2024-03-02T12:43:34;13.53;;;10.40;;
3101;SDS011;1561;42.666;23.392;2024-03-02T12:46:02;14.90;;;10.90;;
3101;SDS011;1561;42.666;23.392;2024-03-02T12:48:30;13.90;;;9.50;;
3101;SDS011;1561;42.666;23.392;2024-03-02T12:50:58;13.03;;;9.50;;
3101;SDS011;1561;42.666;23.392;2024-03-02T12:53:27;14.73;;;10.53;;
3101;SDS011;1561;42.666;23.392;2024-03-02T12:56:01;16.83;;;11.70;;
3101;SDS011;1561;42.666;23.392;2024-03-02T12:58:38;16.20;;;11.63;;
3101;SDS011;1561;42.666;23.392;2024-03-02T13:01:10;20.80;;;13.40;;
3101;SDS011;1561;42.666;23.392;2024-03-02T13:03:39;16.30;;;12.43;;
3101;SDS011;1561;42.666;23.392;2024-03-02T13:06:09;17.60;;;12.43;;
3101;SDS011;1561;42.666;23.392;2024-03-02T13:08:39;15.00;;;10.83;;
3101;SDS011;1561;42.666;23.392;2024-03-02T13:11:15;14.87;;;10.87;;
3101;SDS011;1561;42.666;23.392;2024-03-02T13:13:43;17.97;;;12.77;;
3101;SDS011;1561;42.666;23.392;2024-03-02T13:16:11;18.27;;;13.00;;
3101;SDS011;1561;42.666;23.392;2024-03-02T13:18:40;18.17;;;11.50;;
3101;SDS011;1561;42.666;23.392;2024-03-02T13:21:09;15.20;;;10.70;;
3101;SDS011;1561;42.666;23.392;2024-03-02T13:23:37;17.83;;;11.90;;
3101;SDS011;1561;42.666;23.392;2024-03-02T13:26:18;17.47;;;13.87;;
3101;SDS011;1561;42.666;23.392;2024-03-02T13:28:47;13.20;;;10.80;;
3101;SDS011;1561;42.666;23.392;2024-03-02T13:31:15;14.50;;;11.07;;
3101;SDS011;1561;42.666;23.392;2024-03-02T13:33:47;14.97;;;11.27;;
3101;SDS011;1561;42.666;23.392;2024-03-02T13:36:34;16.57;;;12.13;;
3101;SDS011;1561;42.666;23.392;2024-03-02T13:39:04;18.90;;;12.53;;
3101;SDS011;1561;42.666;23.392;2024-03-02T13:41:47;27.73;;;17.63;;
3101;SDS011;1561;42.666;23.392;2024-03-02T13:44:18;18.00;;;12.10;;
3101;SDS011;1561;42.666;23.392;2024-03-02T13:49:48;20.07;;;12.37;;
3101;SDS011;1561;42.666;23.392;2024-03-02T13:52:37;17.97;;;12.53;;
3101;SDS011;1561;42.666;23.392;2024-03-02T13:55:08;17.00;;;12.27;;
3101;SDS011;1561;42.666;23.392;2024-03-02T13:57:39;18.10;;;13.67;;
3101;SDS011;1561;42.666;23.392;2024-03-02T14:00:15;19.30;;;14.30;;
3101;SDS011;1561;42.666;23.392;2024-03-02T14:02:48;16.40;;;12.03;;
3101;SDS011;1561;42.666;23.392;2024-03-02T14:05:20;20.03;;;12.33;;
3101;SDS011;1561;42.666;23.392;2024-03-02T14:07:49;18.17;;;12.37;;
3101;SDS011;1561;42.666;23.392;2024-03-02T14:10:19;18.10;;;13.20;;
3101;SDS011;1561;42.666;23.392;2024-03-02T14:12:55;16.03;;;12.27;;
3101;SDS011;1561;42.666;23.392;2024-03-02T14:15:36;16.40;;;12.80;;
3101;SDS011;1561;42.666;23.392;2024-03-02T14:18:09;16.77;;;11.80;;
3101;SDS011;1561;42.666;23.392;2024-03-02T14:20:38;19.40;;;13.00;;
3101;SDS011;1561;42.666;23.392;2024-03-02T14:23:08;18.77;;;14.33;;
3101;SDS011;1561;42.666;23.392;2024-03-02T14:25:44;17.17;;;13.07;;
3101;SDS011;1561;42.666;23.392;2024-03-02T14:28:15;18.87;;;13.73;;
3101;SDS011;1561;42.666;23.392;2024-03-02T14:30:47;19.03;;;14.30;;
3101;SDS011;1561;42.666;23.392;2024-03-02T14:33:15;18.37;;;14.13;;
3101;SDS011;1561;42.666;23.392;2024-03-02T14:35:53;20.57;;;14.83;;
3101;SDS011;1561;42.666;23.392;2024-03-02T14:38:21;19.70;;;14.63;;
3101;SDS011;1561;42.666;23.392;2024-03-02T14:40:53;19.87;;;15.50;;
3101;SDS011;1561;42.666;23.392;2024-03-02T14:43:28;20.87;;;15.67;;
3101;SDS011;1561;42.666;23.392;2024-03-02T14:45:56;22.10;;;16.17;;
3101;SDS011;1561;42.666;23.392;2024-03-02T14:48:28;22.60;;;16.87;;
3101;SDS011;1561;42.666;23.392;2024-03-02T14:50:58;24.00;;;15.90;;
3101;SDS011;1561;42.666;23.392;2024-03-02T14:53:28;20.40;;;15.33;;
3101;SDS011;1561;42.666;23.392;2024-03-02T14:55:55;24.00;;;16.30;;
3101;SDS011;1561;42.666;23.392;2024-03-02T14:58:23;25.87;;;18.20;;
3101;SDS011;1561;42.666;23.392;2024-03-02T15:01:02;22.37;;;17.20;;
3101;SDS011;1561;42.666;23.392;2024-03-02T15:03:32;23.50;;;17.27;;
3101;SDS011;1561;42.666;23.392;2024-03-02T15:06:02;22.70;;;15.57;;
3101;SDS011;1561;42.666;23.392;2024-03-02T15:08:33;24.00;;;16.30;;
3101;SDS011;1561;42.666;23.392;2024-03-02T15:11:02;20.27;;;15.70;;
3101;SDS011;1561;42.666;23.392;2024-03-02T15:13:32;22.20;;;16.13;;